Taurus — WDB5562 — position and weather

sailwx.info

Track history (hours):
 
Tides and Currents Weather Stations Pressure Air Temp Water Temp Dewpoint Dewpoint Depression Visibility Wind Speed Wind Dir Waves Ship Positions

Taurus

Owner: Kirby Offshore Marine, LLC, Staten Island, NY. More information available from US FCC via Universal Licensing System and Coast Guard Vessel Documentation Center.

Last reported at 2014-Dec-20 01:33 UTC. Time now 2014-Dec-20 01:38 UTC.
Position N 40°39' W 074°10'.

Length 24 m.

Type: Tug. MMSI: 366910990.

Date/timePositionNaut miles runAvg speedWind from/ knotsBaromVisibWave heightAir tempDewpointWater temp
2014-Dec-20 01:33N 40°39' W 074°10'1 0.5
2014-Dec-20 00:33N 40°39' W 074°10'0 0.4
2014-Dec-19 23:33N 40°38' W 074°10'0 0.0
2014-Dec-19 22:33N 40°38' W 074°10'0 0.0
2014-Dec-19 21:10N 40°38' W 074°10'1 1.6
2014-Dec-19 20:31N 40°39' W 074°11'1 1.0
2014-Dec-19 19:25N 40°39' W 074°10'0 0.0
2014-Dec-19 18:17N 40°39' W 074°10'0 0.0
2014-Dec-19 17:26N 40°39' W 074°10'0 0.0
2014-Dec-19 16:18N 40°39' W 074°10'0 0.0
2014-Dec-19 15:11N 40°39' W 074°10'0 0.0
2014-Dec-19 12:31N 40°39' W 074°10'0 0.0
2014-Dec-19 11:04N 40°39' W 074°10'4 7.1
2014-Dec-19 10:33N 40°39' W 074°05'1 0.8
2014-Dec-19 09:33N 40°39' W 074°06'3 1.0
2014-Dec-19 06:33N 40°39' W 074°10'0 0.0
2014-Dec-19 05:15N 40°39' W 074°10'0 0.0
2014-Dec-19 04:19N 40°39' W 074°10'0 0.0
2014-Dec-19 03:29N 40°39' W 074°10'0 0.0
2014-Dec-19 02:33N 40°39' W 074°10'0 0.1
2014-Dec-19 01:23N 40°38' W 074°10'0 0.0
2014-Dec-19 00:33N 40°38' W 074°10'3 2.2
2014-Dec-18 23:11N 40°36' W 074°12'3 4.9
2014-Dec-18 22:32N 40°38' W 074°09'0 0.1
2014-Dec-18 21:34N 40°38' W 074°09'0 0.3
2014-Dec-18 20:30N 40°38' W 074°10'2 2.3
2014-Dec-18 19:33N 40°37' W 074°12'0 0.1
2014-Dec-18 17:24N 40°37' W 074°12'2 2.7
2014-Dec-18 16:34N 40°38' W 074°09'0 0.3
2014-Dec-18 15:33N 40°38' W 074°10'0 0.0
2014-Dec-18 14:34N 40°38' W 074°10'0 0.0
2014-Dec-18 13:34N 40°38' W 074°10'0 0.0
2014-Dec-18 12:34N 40°38' W 074°10'0 0.4
2014-Dec-18 11:30N 40°38' W 074°09'5 5.6
2014-Dec-18 10:33N 40°40' W 074°03'5 5.4
2014-Dec-18 09:34N 40°44' W 073°58'1 1.2
2014-Dec-18 08:33N 40°44' W 073°57'0 0.0
2014-Dec-18 07:33N 40°44' W 073°57'0 0.0
2014-Dec-18 05:32N 40°44' W 073°57'2 2.3
2014-Dec-18 04:34N 40°43' W 073°59'6 6.2
2014-Dec-18 03:34N 40°39' W 074°05'5 5.1
2014-Dec-18 02:34N 40°38' W 074°12'5 3.8
2014-Dec-18 01:16N 40°33' W 074°14'0 0.0
2014-Dec-17 23:27N 40°34' W 074°14'0 0.0
2014-Dec-17 22:25N 40°34' W 074°14'2 1.0
2014-Dec-17 20:05N 40°35' W 074°12'0 0.3
2014-Dec-17 19:20N 40°35' W 074°12'2 2.5
2014-Dec-17 18:29N 40°37' W 074°12'2 2.5
2014-Dec-17 17:34N 40°38' W 074°10'0 0.0
2014-Dec-17 16:34N 40°38' W 074°10'0 0.0
2014-Dec-17 15:34N 40°38' W 074°10'0 0.0
2014-Dec-17 14:33N 40°38' W 074°10'0 0.0
2014-Dec-17 13:34N 40°38' W 074°10'6 5.3
2014-Dec-17 12:26N 40°33' W 074°14'1 1.3
2014-Dec-17 11:31N 40°33' W 074°15'6 6.0
2014-Dec-17 10:32N 40°38' W 074°12'2 1.7
2014-Dec-17 09:33N 40°38' W 074°10'0 0.0
2014-Dec-17 08:33N 40°38' W 074°10'0 0.0
2014-Dec-17 07:33N 40°38' W 074°10'1 0.6
2014-Dec-17 05:33N 40°38' W 074°12'2 2.2
2014-Dec-17 04:33N 40°36' W 074°12'1 0.6
2014-Dec-17 03:33N 40°36' W 074°12'0 0.0
2014-Dec-17 02:33N 40°36' W 074°12'0 0.0
2014-Dec-17 01:33N 40°36' W 074°12'0 0.0
2014-Dec-17 00:31N 40°36' W 074°12'0 0.0
2014-Dec-16 23:33N 40°36' W 074°12'4 4.0
2014-Dec-16 22:33N 40°32' W 074°15'4 4.1
2014-Dec-16 21:32N 40°36' W 074°12'6 5.7
2014-Dec-16 20:33N 40°39' W 074°06'3 3.1
2014-Dec-16 19:33N 40°38' W 074°10'0 0.0
2014-Dec-16 18:33N 40°38' W 074°10'0 0.0
2014-Dec-16 17:34N 40°38' W 074°10'0 0.0
2014-Dec-16 16:34N 40°38' W 074°10'0 0.0
2014-Dec-16 15:32N 40°38' W 074°10'0 0.1
2014-Dec-16 14:33N 40°39' W 074°10'3 2.6
2014-Dec-16 13:33N 40°39' W 074°07'3 3.2
2014-Dec-16 12:34N 40°40' W 074°03'9 8.6
2014-Dec-16 11:34N 40°47' W 073°55'7 7.1
2014-Dec-16 10:33N 40°50' W 073°47'5 5.2
2014-Dec-16 09:31N 40°50' W 073°40'1 0.1
2014-Dec-15 22:16N 40°50' W 073°39'1 1.5
2014-Dec-15 21:20N 40°51' W 073°40'2 2.0
2014-Dec-15 20:32N 40°52' W 073°41'0 0.0
2014-Dec-15 19:24N 40°52' W 073°41'0 0.0
2014-Dec-15 18:33N 40°52' W 073°41'0 0.1
2014-Dec-15 17:25N 40°52' W 073°41'3 3.5
2014-Dec-15 16:33N 40°51' W 073°45'7 6.5
2014-Dec-15 15:30N 40°48' W 073°53'6 6.1
2014-Dec-15 14:34N 40°44' W 073°58'6 5.5
2014-Dec-15 13:34N 40°40' W 074°03'1 1.1
2014-Dec-15 12:33N 40°39' W 074°04'0 0.0
2014-Dec-15 11:34N 40°39' W 074°04'3 3.2
2014-Dec-15 10:33N 40°39' W 074°08'3 3.2
2014-Dec-15 09:32N 40°38' W 074°12'2 2.1
2014-Dec-15 08:34N 40°39' W 074°10'0 0.0
2014-Dec-15 07:33N 40°39' W 074°10'0 0.0
2014-Dec-15 06:34N 40°39' W 074°10'0 0.0
2014-Dec-15 05:29N 40°39' W 074°10'0 0.0
2014-Dec-15 04:32N 40°39' W 074°10'0 0.0
2014-Dec-15 03:30N 40°39' W 074°10'0 0.0
2014-Dec-15 02:34N 40°39' W 074°10'0 0.0
2014-Dec-15 01:34N 40°39' W 074°10'2 1.9
2014-Dec-15 00:33N 40°38' W 074°12'4 3.6
2014-Dec-14 23:32N 40°39' W 074°08'1 0.8
2014-Dec-14 22:33N 40°39' W 074°07'5 4.5
2014-Dec-14 21:33N 40°38' W 074°12'2 1.9
2014-Dec-14 20:33N 40°38' W 074°10'0 0.0
2014-Dec-14 19:29N 40°38' W 074°10'0 0.0
2014-Dec-14 18:30N 40°38' W 074°10'3 3.2
2014-Dec-14 17:33N 40°39' W 074°06'2 2.3
2014-Dec-14 16:34N 40°38' W 074°03'5 5.1
2014-Dec-14 15:34N 40°39' W 074°10'3 3.4
2014-Dec-14 14:32N 40°36' W 074°12'0 0.2
2014-Dec-14 13:32N 40°36' W 074°12'1 1.3
2014-Dec-14 12:29N 40°37' W 074°12'2 2.1
2014-Dec-14 11:25N 40°38' W 074°10'0 0.0
2014-Dec-14 10:25N 40°38' W 074°10'0 0.0
2014-Dec-14 09:29N 40°38' W 074°10'0 0.0
2014-Dec-14 08:33N 40°38' W 074°10'0 0.0
2014-Dec-14 07:27N 40°38' W 074°10'0 0.0
2014-Dec-14 06:26N 40°38' W 074°10'0 0.0
2014-Dec-14 05:33N 40°38' W 074°10'3 3.4
2014-Dec-14 04:32N 40°36' W 074°12'2 2.2
2014-Dec-14 03:30N 40°38' W 074°12'6 6.2
2014-Dec-14 02:33N 40°39' W 074°05'2 2.3
2014-Dec-14 01:33N 40°37' W 074°03'0 0.0
2014-Dec-14 00:32N 40°37' W 074°03'2 2.4
2014-Dec-13 23:33N 40°39' W 074°05'4 1.1
2014-Dec-13 20:10N 40°38' W 074°10'0 0.0
2014-Dec-13 19:18N 40°38' W 074°10'0 0.0
2014-Dec-13 18:29N 40°38' W 074°10'0 0.0
2014-Dec-13 17:24N 40°38' W 074°10'0 0.0
2014-Dec-13 16:33N 40°38' W 074°10'0 0.0
2014-Dec-13 15:32N 40°38' W 074°10'0 0.0
2014-Dec-13 13:33N 40°38' W 074°10'2 1.8
2014-Dec-13 12:33N 40°39' W 074°08'2 1.9
2014-Dec-13 11:34N 40°39' W 074°05'0 0.1
2014-Dec-13 10:34N 40°39' W 074°05'4 3.6
2014-Dec-13 09:34N 40°40' W 074°00'0 0.0
2014-Dec-13 08:34N 40°40' W 074°00'0 0.0
2014-Dec-13 07:34N 40°40' W 074°00'0 0.0
2014-Dec-13 06:34N 40°40' W 074°00'0 0.0
2014-Dec-13 05:34N 40°40' W 074°00'0 0.0
2014-Dec-13 04:34N 40°40' W 074°00'0 0.0
2014-Dec-13 03:34N 40°40' W 074°00'0 0.0
2014-Dec-13 02:34N 40°40' W 074°00'0 0.0
2014-Dec-13 01:34N 40°40' W 074°00'0 0.0
2014-Dec-13 00:34N 40°40' W 074°00'0 0.3
2014-Dec-12 23:34N 40°40' W 074°01'7 6.6
2014-Dec-12 22:33N 40°39' W 074°09'6 4.7
2014-Dec-12 21:21N 40°34' W 074°13'2 1.5
2014-Dec-12 20:10N 40°33' W 074°15'4 1.8
2014-Dec-12 18:09N 40°36' W 074°12'3 5.4
2014-Dec-12 17:33N 40°39' W 074°10'0 0.1
2014-Dec-12 16:33N 40°38' W 074°10'0 0.0
2014-Dec-12 15:33N 40°38' W 074°10'0 0.0
2014-Dec-12 14:33N 40°38' W 074°10'0 0.3
2014-Dec-12 13:34N 40°38' W 074°10'0 0.0
2014-Dec-12 12:33N 40°38' W 074°10'3 1.0
2014-Dec-12 09:11N 40°36' W 074°12'4 6.0
2014-Dec-12 08:33N 40°39' W 074°09'6 6.2
2014-Dec-12 07:34N 40°41' W 074°02'8 7.7
2014-Dec-12 06:33N 40°47' W 073°55'2 1.2
2014-Dec-12 05:09N 40°48' W 073°54'0 0.0
2014-Dec-12 03:33N 40°48' W 073°54'0 0.0
2014-Dec-12 02:29N 40°48' W 073°54'0 0.0
2014-Dec-12 00:06N 40°48' W 073°54'7 4.0
2014-Dec-11 22:28N 40°50' W 073°46'11 0.8
2014-Dec-11 09:22N 40°53' W 073°32'4 0.6
2014-Dec-11 02:18N 40°56' W 073°36'7 7.2
2014-Dec-11 01:17N 40°52' W 073°44'11 6.2
2014-Dec-10 23:33N 40°47' W 073°56'5 5.1
2014-Dec-10 22:34N 40°42' W 073°59'5 4.7
2014-Dec-10 21:34N 40°39' W 074°04'5 4.5
2014-Dec-10 20:33N 40°39' W 074°10'0 0.0
2014-Dec-10 19:34N 40°39' W 074°10'0 0.0
2014-Dec-10 18:34N 40°39' W 074°10'0 0.0
2014-Dec-10 17:34N 40°39' W 074°10'0 0.0
2014-Dec-10 16:34N 40°39' W 074°10'0 0.0
2014-Dec-10 15:33N 40°39' W 074°10'0 0.0
2014-Dec-10 14:33N 40°39' W 074°10'0 0.0
2014-Dec-10 13:33N 40°39' W 074°10'0 0.0
2014-Dec-10 12:34N 40°39' W 074°10'0 0.0
2014-Dec-10 11:33N 40°39' W 074°10'0 0.0
2014-Dec-10 10:33N 40°39' W 074°10'0 0.0
2014-Dec-10 09:34N 40°39' W 074°10'4 4.5
2014-Dec-10 08:34N 40°43' W 074°07'0 0.4
2014-Dec-10 07:34N 40°42' W 074°07'5 5.3
2014-Dec-10 06:33N 40°38' W 074°12'6 5.2
2014-Dec-10 05:21N 40°33' W 074°15'0 0.3
2014-Dec-10 04:31N 40°32' W 074°15'0 0.0
2014-Dec-10 03:30N 40°32' W 074°15'  
Track history (hours):
 
Tides and Currents Weather Stations Pressure Air Temp Water Temp Dewpoint Dewpoint Depression Visibility Wind Speed Wind Dir Waves Ship Positions

Taurus

Owner: Kirby Offshore Marine, LLC, Staten Island, NY. More information available from US FCC via Universal Licensing System and Coast Guard Vessel Documentation Center.

Last reported at 2014-Dec-20 01:33 UTC. Time now 2014-Dec-20 01:38 UTC.
Position N 40°39' W 074°10'.

Length 24 m.

Type: Tug. MMSI: 366910990.

Date/timePositionNaut miles runAvg speedWind from/ knotsBaromVisibWave heightAir tempDewpointWater temp
2014-Dec-20 01:33N 40°39' W 074°10'1 0.5
2014-Dec-20 00:33N 40°39' W 074°10'0 0.4
2014-Dec-19 23:33N 40°38' W 074°10'0 0.0
2014-Dec-19 22:33N 40°38' W 074°10'0 0.0
2014-Dec-19 21:10N 40°38' W 074°10'1 1.6
2014-Dec-19 20:31N 40°39' W 074°11'1 1.0
2014-Dec-19 19:25N 40°39' W 074°10'0 0.0
2014-Dec-19 18:17N 40°39' W 074°10'0 0.0
2014-Dec-19 17:26N 40°39' W 074°10'0 0.0
2014-Dec-19 16:18N 40°39' W 074°10'0 0.0
2014-Dec-19 15:11N 40°39' W 074°10'0 0.0
2014-Dec-19 12:31N 40°39' W 074°10'0 0.0
2014-Dec-19 11:04N 40°39' W 074°10'4 7.1
2014-Dec-19 10:33N 40°39' W 074°05'1 0.8
2014-Dec-19 09:33N 40°39' W 074°06'3 1.0
2014-Dec-19 06:33N 40°39' W 074°10'0 0.0
2014-Dec-19 05:15N 40°39' W 074°10'0 0.0
2014-Dec-19 04:19N 40°39' W 074°10'0 0.0
2014-Dec-19 03:29N 40°39' W 074°10'0 0.0
2014-Dec-19 02:33N 40°39' W 074°10'0 0.1
2014-Dec-19 01:23N 40°38' W 074°10'0 0.0
2014-Dec-19 00:33N 40°38' W 074°10'3 2.2
2014-Dec-18 23:11N 40°36' W 074°12'3 4.9
2014-Dec-18 22:32N 40°38' W 074°09'0 0.1
2014-Dec-18 21:34N 40°38' W 074°09'0 0.3
2014-Dec-18 20:30N 40°38' W 074°10'2 2.3
2014-Dec-18 19:33N 40°37' W 074°12'0 0.1
2014-Dec-18 17:24N 40°37' W 074°12'2 2.7
2014-Dec-18 16:34N 40°38' W 074°09'0 0.3
2014-Dec-18 15:33N 40°38' W 074°10'0 0.0
2014-Dec-18 14:34N 40°38' W 074°10'0 0.0
2014-Dec-18 13:34N 40°38' W 074°10'0 0.0
2014-Dec-18 12:34N 40°38' W 074°10'0 0.4
2014-Dec-18 11:30N 40°38' W 074°09'5 5.6
2014-Dec-18 10:33N 40°40' W 074°03'5 5.4
2014-Dec-18 09:34N 40°44' W 073°58'1 1.2
2014-Dec-18 08:33N 40°44' W 073°57'0 0.0
2014-Dec-18 07:33N 40°44' W 073°57'0 0.0
2014-Dec-18 05:32N 40°44' W 073°57'2 2.3
2014-Dec-18 04:34N 40°43' W 073°59'6 6.2
2014-Dec-18 03:34N 40°39' W 074°05'5 5.1
2014-Dec-18 02:34N 40°38' W 074°12'5 3.8
2014-Dec-18 01:16N 40°33' W 074°14'0 0.0
2014-Dec-17 23:27N 40°34' W 074°14'0 0.0
2014-Dec-17 22:25N 40°34' W 074°14'2 1.0
2014-Dec-17 20:05N 40°35' W 074°12'0 0.3
2014-Dec-17 19:20N 40°35' W 074°12'2 2.5
2014-Dec-17 18:29N 40°37' W 074°12'2 2.5
2014-Dec-17 17:34N 40°38' W 074°10'0 0.0
2014-Dec-17 16:34N 40°38' W 074°10'0 0.0
2014-Dec-17 15:34N 40°38' W 074°10'0 0.0
2014-Dec-17 14:33N 40°38' W 074°10'0 0.0
2014-Dec-17 13:34N 40°38' W 074°10'6 5.3
2014-Dec-17 12:26N 40°33' W 074°14'1 1.3
2014-Dec-17 11:31N 40°33' W 074°15'6 6.0
2014-Dec-17 10:32N 40°38' W 074°12'2 1.7
2014-Dec-17 09:33N 40°38' W 074°10'0 0.0
2014-Dec-17 08:33N 40°38' W 074°10'0 0.0
2014-Dec-17 07:33N 40°38' W 074°10'1 0.6
2014-Dec-17 05:33N 40°38' W 074°12'2 2.2
2014-Dec-17 04:33N 40°36' W 074°12'1 0.6
2014-Dec-17 03:33N 40°36' W 074°12'0 0.0
2014-Dec-17 02:33N 40°36' W 074°12'0 0.0
2014-Dec-17 01:33N 40°36' W 074°12'0 0.0
2014-Dec-17 00:31N 40°36' W 074°12'0 0.0
2014-Dec-16 23:33N 40°36' W 074°12'4 4.0
2014-Dec-16 22:33N 40°32' W 074°15'4 4.1
2014-Dec-16 21:32N 40°36' W 074°12'6 5.7
2014-Dec-16 20:33N 40°39' W 074°06'3 3.1
2014-Dec-16 19:33N 40°38' W 074°10'0 0.0
2014-Dec-16 18:33N 40°38' W 074°10'0 0.0
2014-Dec-16 17:34N 40°38' W 074°10'0 0.0
2014-Dec-16 16:34N 40°38' W 074°10'0 0.0
2014-Dec-16 15:32N 40°38' W 074°10'0 0.1
2014-Dec-16 14:33N 40°39' W 074°10'3 2.6
2014-Dec-16 13:33N 40°39' W 074°07'3 3.2
2014-Dec-16 12:34N 40°40' W 074°03'9 8.6
2014-Dec-16 11:34N 40°47' W 073°55'7 7.1
2014-Dec-16 10:33N 40°50' W 073°47'5 5.2
2014-Dec-16 09:31N 40°50' W 073°40'1 0.1
2014-Dec-15 22:16N 40°50' W 073°39'1 1.5
2014-Dec-15 21:20N 40°51' W 073°40'2 2.0
2014-Dec-15 20:32N 40°52' W 073°41'0 0.0
2014-Dec-15 19:24N 40°52' W 073°41'0 0.0
2014-Dec-15 18:33N 40°52' W 073°41'0 0.1
2014-Dec-15 17:25N 40°52' W 073°41'3 3.5
2014-Dec-15 16:33N 40°51' W 073°45'7 6.5
2014-Dec-15 15:30N 40°48' W 073°53'6 6.1
2014-Dec-15 14:34N 40°44' W 073°58'6 5.5
2014-Dec-15 13:34N 40°40' W 074°03'1 1.1
2014-Dec-15 12:33N 40°39' W 074°04'0 0.0
2014-Dec-15 11:34N 40°39' W 074°04'3 3.2
2014-Dec-15 10:33N 40°39' W 074°08'3 3.2
2014-Dec-15 09:32N 40°38' W 074°12'2 2.1
2014-Dec-15 08:34N 40°39' W 074°10'0 0.0
2014-Dec-15 07:33N 40°39' W 074°10'0 0.0
2014-Dec-15 06:34N 40°39' W 074°10'0 0.0
2014-Dec-15 05:29N 40°39' W 074°10'0 0.0
2014-Dec-15 04:32N 40°39' W 074°10'0 0.0
2014-Dec-15 03:30N 40°39' W 074°10'0 0.0
2014-Dec-15 02:34N 40°39' W 074°10'0 0.0
2014-Dec-15 01:34N 40°39' W 074°10'2 1.9
2014-Dec-15 00:33N 40°38' W 074°12'4 3.6
2014-Dec-14 23:32N 40°39' W 074°08'1 0.8
2014-Dec-14 22:33N 40°39' W 074°07'5 4.5
2014-Dec-14 21:33N 40°38' W 074°12'2 1.9
2014-Dec-14 20:33N 40°38' W 074°10'0 0.0
2014-Dec-14 19:29N 40°38' W 074°10'0 0.0
2014-Dec-14 18:30N 40°38' W 074°10'3 3.2
2014-Dec-14 17:33N 40°39' W 074°06'2 2.3
2014-Dec-14 16:34N 40°38' W 074°03'5 5.1
2014-Dec-14 15:34N 40°39' W 074°10'3 3.4
2014-Dec-14 14:32N 40°36' W 074°12'0 0.2
2014-Dec-14 13:32N 40°36' W 074°12'1 1.3
2014-Dec-14 12:29N 40°37' W 074°12'2 2.1
2014-Dec-14 11:25N 40°38' W 074°10'0 0.0
2014-Dec-14 10:25N 40°38' W 074°10'0 0.0
2014-Dec-14 09:29N 40°38' W 074°10'0 0.0
2014-Dec-14 08:33N 40°38' W 074°10'0 0.0
2014-Dec-14 07:27N 40°38' W 074°10'0 0.0
2014-Dec-14 06:26N 40°38' W 074°10'0 0.0
2014-Dec-14 05:33N 40°38' W 074°10'3 3.4
2014-Dec-14 04:32N 40°36' W 074°12'2 2.2
2014-Dec-14 03:30N 40°38' W 074°12'6 6.2
2014-Dec-14 02:33N 40°39' W 074°05'2 2.3
2014-Dec-14 01:33N 40°37' W 074°03'0 0.0
2014-Dec-14 00:32N 40°37' W 074°03'2 2.4
2014-Dec-13 23:33N 40°39' W 074°05'4 1.1
2014-Dec-13 20:10N 40°38' W 074°10'0 0.0
2014-Dec-13 19:18N 40°38' W 074°10'0 0.0
2014-Dec-13 18:29N 40°38' W 074°10'0 0.0
2014-Dec-13 17:24N 40°38' W 074°10'0 0.0
2014-Dec-13 16:33N 40°38' W 074°10'0 0.0
2014-Dec-13 15:32N 40°38' W 074°10'0 0.0
2014-Dec-13 13:33N 40°38' W 074°10'2 1.8
2014-Dec-13 12:33N 40°39' W 074°08'2 1.9
2014-Dec-13 11:34N 40°39' W 074°05'0 0.1
2014-Dec-13 10:34N 40°39' W 074°05'4 3.6
2014-Dec-13 09:34N 40°40' W 074°00'0 0.0
2014-Dec-13 08:34N 40°40' W 074°00'0 0.0
2014-Dec-13 07:34N 40°40' W 074°00'0 0.0
2014-Dec-13 06:34N 40°40' W 074°00'0 0.0
2014-Dec-13 05:34N 40°40' W 074°00'0 0.0
2014-Dec-13 04:34N 40°40' W 074°00'0 0.0
2014-Dec-13 03:34N 40°40' W 074°00'0 0.0
2014-Dec-13 02:34N 40°40' W 074°00'0 0.0
2014-Dec-13 01:34N 40°40' W 074°00'0 0.0
2014-Dec-13 00:34N 40°40' W 074°00'0 0.3
2014-Dec-12 23:34N 40°40' W 074°01'7 6.6
2014-Dec-12 22:33N 40°39' W 074°09'6 4.7
2014-Dec-12 21:21N 40°34' W 074°13'2 1.5
2014-Dec-12 20:10N 40°33' W 074°15'4 1.8
2014-Dec-12 18:09N 40°36' W 074°12'3 5.4
2014-Dec-12 17:33N 40°39' W 074°10'0 0.1
2014-Dec-12 16:33N 40°38' W 074°10'0 0.0
2014-Dec-12 15:33N 40°38' W 074°10'0 0.0
2014-Dec-12 14:33N 40°38' W 074°10'0 0.3
2014-Dec-12 13:34N 40°38' W 074°10'0 0.0
2014-Dec-12 12:33N 40°38' W 074°10'3 1.0
2014-Dec-12 09:11N 40°36' W 074°12'4 6.0
2014-Dec-12 08:33N 40°39' W 074°09'6 6.2
2014-Dec-12 07:34N 40°41' W 074°02'8 7.7
2014-Dec-12 06:33N 40°47' W 073°55'2 1.2
2014-Dec-12 05:09N 40°48' W 073°54'0 0.0
2014-Dec-12 03:33N 40°48' W 073°54'0 0.0
2014-Dec-12 02:29N 40°48' W 073°54'0 0.0
2014-Dec-12 00:06N 40°48' W 073°54'7 4.0
2014-Dec-11 22:28N 40°50' W 073°46'11 0.8
2014-Dec-11 09:22N 40°53' W 073°32'4 0.6
2014-Dec-11 02:18N 40°56' W 073°36'7 7.2
2014-Dec-11 01:17N 40°52' W 073°44'11 6.2
2014-Dec-10 23:33N 40°47' W 073°56'5 5.1
2014-Dec-10 22:34N 40°42' W 073°59'5 4.7
2014-Dec-10 21:34N 40°39' W 074°04'5 4.5
2014-Dec-10 20:33N 40°39' W 074°10'0 0.0
2014-Dec-10 19:34N 40°39' W 074°10'0 0.0
2014-Dec-10 18:34N 40°39' W 074°10'0 0.0
2014-Dec-10 17:34N 40°39' W 074°10'0 0.0
2014-Dec-10 16:34N 40°39' W 074°10'0 0.0
2014-Dec-10 15:33N 40°39' W 074°10'0 0.0
2014-Dec-10 14:33N 40°39' W 074°10'0 0.0
2014-Dec-10 13:33N 40°39' W 074°10'0 0.0
2014-Dec-10 12:34N 40°39' W 074°10'0 0.0
2014-Dec-10 11:33N 40°39' W 074°10'0 0.0
2014-Dec-10 10:33N 40°39' W 074°10'0 0.0
2014-Dec-10 09:34N 40°39' W 074°10'4 4.5
2014-Dec-10 08:34N 40°43' W 074°07'0 0.4
2014-Dec-10 07:34N 40°42' W 074°07'5 5.3
2014-Dec-10 06:33N 40°38' W 074°12'6 5.2
2014-Dec-10 05:21N 40°33' W 074°15'0 0.3
2014-Dec-10 04:31N 40°32' W 074°15'0 0.0
2014-Dec-10 03:30N 40°32' W 074°15'  

Dump ship's entire track history